createdAt,value
2018-07-03T00:00:39.450Z,18.41
2018-07-03T00:01:21.380Z,18.44
2018-07-03T00:02:02.562Z,18.45
2018-07-03T00:02:44.314Z,18.41
2018-07-03T00:03:25.407Z,18.43
2018-07-03T00:04:06.618Z,18.44
2018-07-03T00:04:49.353Z,18.34
2018-07-03T00:05:31.392Z,18.28
2018-07-03T00:06:12.572Z,18.29
2018-07-03T00:06:53.656Z,18.28
2018-07-03T00:07:34.684Z,18.35
2018-07-03T00:08:15.797Z,18.33
2018-07-03T00:08:56.907Z,18.33
2018-07-03T00:09:38.117Z,18.33
2018-07-03T00:10:19.156Z,18.25
2018-07-03T00:11:00.177Z,18.25
2018-07-03T00:11:41.150Z,18.33
2018-07-03T00:12:22.260Z,18.25
2018-07-03T00:13:03.222Z,18.31
2018-07-03T00:13:44.312Z,18.26
2018-07-03T00:14:25.541Z,18.2
2018-07-03T00:15:06.475Z,18.15
2018-07-03T00:15:48.215Z,18.19
2018-07-03T00:16:29.331Z,18.26
2018-07-03T00:17:10.266Z,18.1
2018-07-03T00:17:51.412Z,18.16
2018-07-03T00:18:32.470Z,18.18
2018-07-03T00:19:14.493Z,18.18
2018-07-03T00:19:55.425Z,18.16
2018-07-03T00:20:36.467Z,18.22
2018-07-03T00:21:19.110Z,18.22
2018-07-03T00:22:00.848Z,18.2
2018-07-03T00:22:41.769Z,18.16
2018-07-03T00:23:22.791Z,18.16
2018-07-03T00:24:04.801Z,18.16
2018-07-03T00:24:45.951Z,18.13
2018-07-03T00:25:26.907Z,18.19
2018-07-03T00:26:08.012Z,18.08
2018-07-03T00:26:49.869Z,18.15
2018-07-03T00:27:30.810Z,18.03
2018-07-03T00:28:11.869Z,18.11
2018-07-03T00:28:52.878Z,18.1
2018-07-03T00:29:34.778Z,18.1
2018-07-03T00:30:15.886Z,18.11
2018-07-03T00:30:57.875Z,18.04
2018-07-03T00:31:39.752Z,18.07
2018-07-03T00:32:21.559Z,18.11
2018-07-03T00:33:02.589Z,18.03
2018-07-03T00:33:44.575Z,18.04
2018-07-03T00:34:25.687Z,18.04
2018-07-03T00:35:06.765Z,18.01
2018-07-03T00:35:47.811Z,18.03
2018-07-03T00:36:28.773Z,18
2018-07-03T00:37:09.970Z,17.97
2018-07-03T00:37:51.111Z,17.98
2018-07-03T00:38:32.132Z,17.94
2018-07-03T00:39:13.236Z,17.94
2018-07-03T00:39:55.328Z,17.92
2018-07-03T00:40:36.485Z,17.92
2018-07-03T00:41:17.650Z,17.89
2018-07-03T00:41:59.622Z,17.87
2018-07-03T00:42:40.593Z,17.87
2018-07-03T00:43:22.278Z,17.9
2018-07-03T00:44:03.273Z,17.89
2018-07-03T00:44:44.942Z,17.89
2018-07-03T00:45:25.997Z,17.86
2018-07-03T00:46:07.053Z,17.9
2018-07-03T00:46:48.939Z,17.9
2018-07-03T00:47:29.867Z,17.82
2018-07-03T00:48:10.948Z,17.87
2018-07-03T00:48:51.939Z,17.89
2018-07-03T00:49:32.988Z,17.86
2018-07-03T00:50:14.299Z,17.74
2018-07-03T00:50:55.937Z,17.82
2018-07-03T00:51:36.917Z,17.72
2018-07-03T00:52:18.078Z,17.74
2018-07-03T00:52:59.153Z,17.74
2018-07-03T00:53:40.919Z,17.78
2018-07-03T00:54:21.956Z,17.8
2018-07-03T00:55:03.966Z,17.8
2018-07-03T00:55:44.969Z,17.78
2018-07-03T00:56:27.129Z,17.8
2018-07-03T00:57:08.277Z,17.74
2018-07-03T00:57:49.355Z,17.74
2018-07-03T00:58:30.430Z,17.74
2018-07-03T00:59:12.344Z,17.79
2018-07-03T00:59:53.553Z,17.79
2018-07-03T01:00:34.676Z,17.82
2018-07-03T01:01:16.400Z,17.8
2018-07-03T01:01:57.473Z,17.72
2018-07-03T01:02:38.591Z,17.71
2018-07-03T01:03:20.272Z,17.72
2018-07-03T01:04:01.396Z,17.72
2018-07-03T01:04:43.194Z,17.74
2018-07-03T01:05:24.381Z,17.65
2018-07-03T01:06:05.592Z,17.64
2018-07-03T01:06:46.750Z,17.72
2018-07-03T01:07:29.540Z,17.59
2018-07-03T01:08:10.601Z,17.59
2018-07-03T01:08:51.691Z,17.56
2018-07-03T01:09:32.720Z,17.52
2018-07-03T01:10:14.711Z,17.56
2018-07-03T01:10:55.750Z,17.56
2018-07-03T01:11:37.345Z,17.59
2018-07-03T01:12:18.464Z,17.68
2018-07-03T01:12:59.476Z,17.68
2018-07-03T01:13:40.562Z,17.63
2018-07-03T01:14:21.831Z,17.67
2018-07-03T01:15:03.602Z,17.63
2018-07-03T01:15:45.127Z,17.63
2018-07-03T01:16:26.164Z,17.6
2018-07-03T01:17:07.180Z,17.49
2018-07-03T01:17:48.228Z,17.65
2018-07-03T01:18:29.291Z,17.44
2018-07-03T01:19:10.356Z,17.46
2018-07-03T01:19:51.913Z,17.49
2018-07-03T01:20:33.033Z,17.49
2018-07-03T01:21:14.016Z,17.49
2018-07-03T01:21:55.042Z,17.54
2018-07-03T01:22:36.149Z,17.49
2018-07-03T01:23:17.222Z,17.42
2018-07-03T01:23:58.273Z,17.45
2018-07-03T01:24:39.468Z,17.49
2018-07-03T01:25:21.435Z,17.51
2018-07-03T01:26:02.548Z,17.44
2018-07-03T01:26:43.742Z,17.41
2018-07-03T01:27:24.925Z,17.44
2018-07-03T01:28:06.068Z,17.42
2018-07-03T01:28:47.160Z,17.42
2018-07-03T01:29:28.264Z,17.38
2018-07-03T01:30:09.242Z,17.38
2018-07-03T01:30:50.375Z,17.41
2018-07-03T01:31:31.344Z,17.34
2018-07-03T01:32:12.460Z,17.3
2018-07-03T01:32:53.470Z,17.34
2018-07-03T01:33:34.550Z,17.31
2018-07-03T01:34:16.930Z,17.31
2018-07-03T01:34:57.854Z,17.3
2018-07-03T01:35:38.715Z,17.33
2018-07-03T01:36:19.808Z,17.33
2018-07-03T01:37:00.783Z,17.29
2018-07-03T01:37:41.924Z,17.31
2018-07-03T01:38:22.998Z,17.33
2018-07-03T01:39:04.131Z,17.34
2018-07-03T01:39:45.209Z,17.3
2018-07-03T01:40:26.355Z,17.27
2018-07-03T01:41:07.435Z,17.33
2018-07-03T01:41:48.496Z,17.33
2018-07-03T01:42:29.522Z,17.34
2018-07-03T01:43:10.621Z,17.31
2018-07-03T01:43:51.814Z,17.26
2018-07-03T01:44:32.994Z,17.31
2018-07-03T01:45:14.065Z,17.29
2018-07-03T01:45:55.647Z,17.27
2018-07-03T01:46:36.770Z,17.31
2018-07-03T01:47:17.741Z,17.2
2018-07-03T01:47:59.485Z,17.22
2018-07-03T01:48:41.120Z,17.24
2018-07-03T01:49:22.268Z,17.22
2018-07-03T01:50:03.350Z,17.23
2018-07-03T01:50:45.889Z,17.22
2018-07-03T01:51:27.033Z,17.16
2018-07-03T01:52:08.195Z,17.2
2018-07-03T01:52:49.249Z,17.15
2018-07-03T01:53:30.343Z,17.23
2018-07-03T01:54:11.443Z,17.27
2018-07-03T01:54:52.484Z,17.2
2018-07-03T01:55:33.533Z,17.26
2018-07-03T01:56:14.571Z,17.22
2018-07-03T01:56:55.511Z,17.22
2018-07-03T01:57:38.114Z,17.2
2018-07-03T01:58:19.189Z,17.11
2018-07-03T01:59:00.269Z,17.12
2018-07-03T01:59:42.412Z,17.2
2018-07-03T02:00:23.486Z,17.11
2018-07-03T02:01:05.374Z,17.09
2018-07-03T02:01:46.391Z,17.08
2018-07-03T02:02:27.378Z,17.08
2018-07-03T02:03:09.419Z,17.11
2018-07-03T02:03:50.480Z,17.05
2018-07-03T02:04:31.563Z,17.06
2018-07-03T02:05:12.739Z,17.09
2018-07-03T02:05:53.942Z,17.12
2018-07-03T02:06:36.619Z,17.02
2018-07-03T02:07:17.820Z,17.06
2018-07-03T02:07:59.128Z,17.08
2018-07-03T02:08:40.169Z,17.09
2018-07-03T02:09:21.298Z,17.04
2018-07-03T02:10:02.456Z,17.06
2018-07-03T02:10:44.227Z,17.01
2018-07-03T02:11:25.345Z,17.04
2018-07-03T02:12:06.410Z,17.09
2018-07-03T02:12:47.333Z,17.05
2018-07-03T02:13:28.418Z,17.04
2018-07-03T02:14:09.653Z,17.04
2018-07-03T02:14:50.776Z,17.02
2018-07-03T02:15:31.905Z,17.02
2018-07-03T02:16:13.075Z,17.02
2018-07-03T02:16:54.164Z,17.05
2018-07-03T02:17:35.308Z,17.02
2018-07-03T02:18:16.312Z,17.02
2018-07-03T02:18:57.328Z,17.06
2018-07-03T02:19:38.445Z,16.99
2018-07-03T02:20:19.552Z,16.97
2018-07-03T02:21:00.540Z,17.01
2018-07-03T02:21:41.636Z,16.96
2018-07-03T02:22:23.352Z,16.94
2018-07-03T02:23:04.517Z,16.96
2018-07-03T02:23:45.654Z,16.89
2018-07-03T02:24:26.887Z,16.93
2018-07-03T02:25:08.148Z,16.91
2018-07-03T02:25:49.278Z,16.9
2018-07-03T02:26:30.413Z,16.84
2018-07-03T02:27:12.129Z,16.96
2018-07-03T02:27:53.235Z,16.89
2018-07-03T02:28:34.928Z,16.84
2018-07-03T02:29:16.873Z,16.9
2018-07-03T02:29:58.077Z,16.97
2018-07-03T02:30:39.103Z,16.91
2018-07-03T02:31:20.115Z,16.89
2018-07-03T02:32:01.246Z,16.91
2018-07-03T02:32:42.297Z,16.87
2018-07-03T02:33:23.457Z,16.79
2018-07-03T02:34:05.515Z,16.84
2018-07-03T02:34:47.674Z,16.79
2018-07-03T02:35:28.822Z,16.81
2018-07-03T02:36:10.417Z,16.83
2018-07-03T02:36:52.081Z,16.93
2018-07-03T02:37:33.220Z,16.81
2018-07-03T02:38:14.354Z,16.81
2018-07-03T02:38:55.307Z,16.79
2018-07-03T02:39:36.377Z,16.79
2018-07-03T02:40:17.425Z,16.78
2018-07-03T02:40:58.524Z,16.79
2018-07-03T02:41:39.665Z,16.81
2018-07-03T02:42:20.823Z,16.76
2018-07-03T02:43:01.869Z,16.81
2018-07-03T02:43:42.979Z,16.78
2018-07-03T02:44:24.049Z,16.75
2018-07-03T02:45:05.138Z,16.79
2018-07-03T02:45:46.108Z,16.75
2018-07-03T02:46:27.312Z,16.76
2018-07-03T02:47:09.066Z,16.69
2018-07-03T02:47:50.128Z,16.74
2018-07-03T02:48:31.121Z,16.72
2018-07-03T02:49:11.936Z,16.74
2018-07-03T02:49:52.807Z,16.75
2018-07-03T02:50:33.981Z,16.71
2018-07-03T02:51:15.049Z,16.78
2018-07-03T02:51:56.969Z,16.65
2018-07-03T02:52:38.678Z,16.66
2018-07-03T02:53:19.919Z,16.76
2018-07-03T02:54:01.943Z,16.79
2018-07-03T02:54:43.123Z,16.65
2018-07-03T02:55:24.040Z,16.75
2018-07-03T02:56:05.236Z,16.71
2018-07-03T02:56:46.458Z,16.71
2018-07-03T02:57:27.657Z,16.66
2018-07-03T02:58:08.831Z,16.66
2018-07-03T02:58:49.951Z,16.74
2018-07-03T02:59:31.152Z,16.74
2018-07-03T03:00:12.349Z,16.65
2018-07-03T03:00:53.514Z,16.68
2018-07-03T03:01:34.648Z,16.69
2018-07-03T03:02:15.737Z,16.75
2018-07-03T03:02:56.970Z,16.72
2018-07-03T03:03:38.136Z,16.71
2018-07-03T03:04:19.341Z,16.71
2018-07-03T03:05:00.504Z,16.64
2018-07-03T03:05:41.527Z,16.65
2018-07-03T03:06:22.610Z,16.64
2018-07-03T03:07:03.714Z,16.58
2018-07-03T03:07:44.718Z,16.66
2018-07-03T03:08:25.845Z,16.72
2018-07-03T03:09:07.848Z,16.65
2018-07-03T03:09:48.653Z,16.6
2018-07-03T03:10:29.643Z,16.64
2018-07-03T03:11:10.762Z,16.68
2018-07-03T03:11:51.752Z,16.65
2018-07-03T03:12:32.800Z,16.58
2018-07-03T03:13:13.830Z,16.61
2018-07-03T03:13:54.936Z,16.57
2018-07-03T03:14:35.977Z,16.61
2018-07-03T03:15:17.174Z,16.6
2018-07-03T03:15:58.280Z,16.71
2018-07-03T03:16:39.367Z,16.66
2018-07-03T03:17:21.227Z,16.65
2018-07-03T03:18:02.258Z,16.64
2018-07-03T03:18:43.397Z,16.65
2018-07-03T03:19:24.461Z,16.64
2018-07-03T03:20:05.529Z,16.71
2018-07-03T03:20:47.153Z,16.68
2018-07-03T03:21:28.189Z,16.78
2018-07-03T03:22:09.203Z,16.75
2018-07-03T03:22:50.232Z,16.68
2018-07-03T03:23:31.340Z,16.75
2018-07-03T03:24:12.469Z,16.74
2018-07-03T03:24:53.494Z,16.71
2018-07-03T03:25:34.665Z,16.65
2018-07-03T03:26:15.593Z,16.74
2018-07-03T03:26:56.793Z,16.75
2018-07-03T03:27:38.725Z,16.65
2018-07-03T03:28:19.894Z,16.69
2018-07-03T03:29:01.082Z,16.74
2018-07-03T03:29:42.074Z,16.69
2018-07-03T03:30:23.131Z,16.68
2018-07-03T03:31:04.336Z,16.74
2018-07-03T03:31:45.364Z,16.71
2018-07-03T03:32:26.581Z,16.66
2018-07-03T03:33:08.580Z,16.71
2018-07-03T03:33:49.523Z,16.71
2018-07-03T03:34:30.736Z,16.75
2018-07-03T03:35:11.673Z,16.71
2018-07-03T03:35:52.787Z,16.74
2018-07-03T03:36:33.939Z,16.72
2018-07-03T03:37:15.032Z,16.74
2018-07-03T03:37:56.158Z,16.74
2018-07-03T03:38:37.098Z,16.74
2018-07-03T03:39:18.092Z,16.6
2018-07-03T03:39:59.162Z,16.71
2018-07-03T03:40:40.106Z,16.74
2018-07-03T03:41:21.256Z,16.71
2018-07-03T03:42:02.356Z,16.72
2018-07-03T03:42:43.391Z,16.66
2018-07-03T03:43:24.385Z,16.75
2018-07-03T03:44:06.398Z,16.68
2018-07-03T03:44:47.447Z,16.64
2018-07-03T03:45:28.537Z,16.61
2018-07-03T03:46:09.405Z,16.71
2018-07-03T03:46:50.386Z,16.61
2018-07-03T03:47:31.578Z,16.61
2018-07-03T03:48:12.466Z,16.58
2018-07-03T03:48:53.653Z,16.65
2018-07-03T03:49:34.717Z,16.57
2018-07-03T03:50:15.803Z,16.61
2018-07-03T03:50:57.851Z,16.64
2018-07-03T03:51:38.980Z,16.61
2018-07-03T03:52:19.863Z,16.57
2018-07-03T03:53:00.888Z,16.61
2018-07-03T03:53:41.907Z,16.69
2018-07-03T03:54:22.988Z,16.61
2018-07-03T03:55:04.094Z,16.61
2018-07-03T03:55:45.195Z,16.6
2018-07-03T03:56:26.371Z,16.61
2018-07-03T03:57:07.460Z,16.6
2018-07-03T03:57:49.459Z,16.58
2018-07-03T03:58:30.375Z,16.61
2018-07-03T03:59:11.484Z,16.64
2018-07-03T03:59:52.656Z,16.61
2018-07-03T04:00:33.714Z,16.64
2018-07-03T04:01:14.870Z,16.61
2018-07-03T04:01:56.880Z,16.64
2018-07-03T04:02:37.961Z,16.66
2018-07-03T04:03:19.022Z,16.71
2018-07-03T04:04:00.158Z,16.68
2018-07-03T04:04:42.070Z,16.66
2018-07-03T04:05:23.985Z,16.64
2018-07-03T04:06:05.057Z,16.74
2018-07-03T04:06:46.270Z,16.68
2018-07-03T04:07:27.982Z,16.75
2018-07-03T04:08:09.048Z,16.65
2018-07-03T04:08:50.964Z,16.68
2018-07-03T04:09:32.191Z,16.66
2018-07-03T04:10:13.409Z,16.72
2018-07-03T04:10:54.622Z,16.71
2018-07-03T04:11:35.682Z,16.74
2018-07-03T04:12:17.449Z,16.76
2018-07-03T04:12:58.403Z,16.61
2018-07-03T04:13:39.346Z,16.69
2018-07-03T04:14:20.493Z,16.69
2018-07-03T04:15:01.754Z,16.76
2018-07-03T04:15:43.719Z,16.74
2018-07-03T04:16:24.856Z,16.79
2018-07-03T04:17:06.829Z,16.83
2018-07-03T04:17:48.036Z,16.72
2018-07-03T04:18:29.142Z,16.71
2018-07-03T04:19:10.327Z,16.69
2018-07-03T04:19:52.226Z,16.68
2018-07-03T04:20:33.381Z,16.72
2018-07-03T04:21:14.668Z,16.74
2018-07-03T04:21:55.763Z,16.74
2018-07-03T04:22:36.884Z,16.79
2018-07-03T04:23:18.088Z,16.75
2018-07-03T04:24:00.567Z,16.83
2018-07-03T04:24:41.663Z,16.76
2018-07-03T04:25:22.688Z,16.84
2018-07-03T04:26:04.700Z,16.78
2018-07-03T04:26:45.746Z,16.78
2018-07-03T04:27:27.946Z,16.79
2018-07-03T04:28:08.995Z,16.83
2018-07-03T04:28:50.137Z,16.83
2018-07-03T04:29:31.239Z,16.79
2018-07-03T04:30:13.098Z,16.78
2018-07-03T04:30:54.196Z,16.79
2018-07-03T04:31:35.337Z,16.86
2018-07-03T04:32:16.487Z,16.89
2018-07-03T04:32:57.576Z,16.97
2018-07-03T04:33:38.680Z,16.91
2018-07-03T04:34:19.712Z,16.9
2018-07-03T04:35:00.867Z,16.97
2018-07-03T04:35:42.033Z,16.96
2018-07-03T04:36:23.996Z,17.01
2018-07-03T04:37:06.046Z,17.01
2018-07-03T04:37:47.123Z,17.01
2018-07-03T04:38:28.289Z,17.02
2018-07-03T04:39:09.502Z,17.04
2018-07-03T04:39:50.746Z,17.02
2018-07-03T04:40:32.393Z,17.09
2018-07-03T04:41:13.550Z,17.09
2018-07-03T04:41:54.712Z,17.23
2018-07-03T04:42:36.466Z,17.22
2018-07-03T04:43:18.867Z,17.31
2018-07-03T04:43:59.668Z,17.3
2018-07-03T04:44:40.692Z,17.36
2018-07-03T04:45:21.707Z,17.39
2018-07-03T04:46:03.432Z,17.45
2018-07-03T04:46:44.543Z,17.56
2018-07-03T04:47:25.688Z,17.56
2018-07-03T04:48:06.820Z,17.64
2018-07-03T04:48:51.259Z,17.64
2018-07-03T04:49:32.216Z,17.6
2018-07-03T04:50:13.142Z,17.78
2018-07-03T04:50:54.071Z,17.72
2018-07-03T04:51:35.183Z,17.74
2018-07-03T04:52:16.049Z,17.68
2018-07-03T04:52:58.829Z,17.82
2018-07-03T04:53:39.864Z,17.72
2018-07-03T04:54:21.025Z,17.85
2018-07-03T04:55:02.958Z,17.87
2018-07-03T04:55:43.974Z,17.94
2018-07-03T04:56:24.972Z,17.92
2018-07-03T04:57:06.933Z,17.9
2018-07-03T04:57:47.792Z,17.97
2018-07-03T04:58:29.479Z,17.95
2018-07-03T04:59:10.422Z,17.95
2018-07-03T04:59:52.111Z,17.95
2018-07-03T05:00:33.089Z,18
2018-07-03T05:01:14.241Z,18.01
2018-07-03T05:01:55.382Z,18.11
2018-07-03T05:02:36.419Z,18.08
2018-07-03T05:03:17.288Z,18.01
2018-07-03T05:03:59.237Z,18.13
2018-07-03T05:04:40.449Z,18.13
2018-07-03T05:05:21.768Z,18.08
2018-07-03T05:06:02.994Z,18.11
2018-07-03T05:06:43.944Z,18.18
2018-07-03T05:07:25.554Z,18.16
2018-07-03T05:08:06.723Z,18.19
2018-07-03T05:08:48.002Z,18.18
2018-07-03T05:09:29.180Z,18.26
2018-07-03T05:10:10.301Z,18.23
2018-07-03T05:10:51.452Z,18.37
2018-07-03T05:11:32.515Z,18.33
2018-07-03T05:12:13.742Z,18.45
2018-07-03T05:12:54.691Z,18.49
2018-07-03T05:13:35.803Z,18.41
2018-07-03T05:14:16.976Z,18.4
2018-07-03T05:14:58.067Z,18.35
2018-07-03T05:15:39.271Z,18.37
2018-07-03T05:16:20.335Z,18.41
2018-07-03T05:17:01.528Z,18.43
2018-07-03T05:17:42.585Z,18.41
2018-07-03T05:18:23.726Z,18.4
2018-07-03T05:19:04.737Z,18.47
2018-07-03T05:19:45.922Z,18.44
2018-07-03T05:20:27.032Z,18.47
2018-07-03T05:21:08.210Z,18.45
2018-07-03T05:21:49.234Z,18.58
2018-07-03T05:22:30.288Z,18.62
2018-07-03T05:23:11.447Z,18.63
2018-07-03T05:23:52.477Z,18.68
2018-07-03T05:24:33.637Z,18.7
2018-07-03T05:25:14.849Z,18.71
2018-07-03T05:25:55.938Z,18.78
2018-07-03T05:26:37.211Z,18.81
2018-07-03T05:27:18.141Z,18.84
2018-07-03T05:27:59.059Z,18.9
2018-07-03T05:28:40.076Z,19.02
2018-07-03T05:29:20.934Z,19.04
2018-07-03T05:30:02.138Z,19.15
2018-07-03T05:30:43.106Z,19.3
2018-07-03T05:31:24.218Z,19.39
2018-07-03T05:32:06.091Z,19.4
2018-07-03T05:32:47.934Z,19.41
2018-07-03T05:33:28.947Z,19.51
2018-07-03T05:34:09.778Z,19.64
2018-07-03T05:34:51.634Z,19.71
2018-07-03T05:35:32.640Z,19.77
2018-07-03T05:36:13.674Z,19.92
2018-07-03T05:36:56.068Z,20.07
2018-07-03T05:37:37.104Z,20.25
2018-07-03T05:38:18.088Z,20.32
2018-07-03T05:38:59.175Z,20.4
2018-07-03T05:39:40.266Z,20.47
2018-07-03T05:40:21.271Z,20.58
2018-07-03T05:41:02.296Z,20.67
2018-07-03T05:41:43.485Z,20.77
2018-07-03T05:42:25.368Z,20.87
2018-07-03T05:43:06.443Z,20.97
2018-07-03T05:43:47.643Z,20.97
2018-07-03T05:44:28.599Z,21.11
2018-07-03T05:45:09.811Z,21.12
2018-07-03T05:45:50.877Z,21.2
2018-07-03T05:46:31.813Z,21.35
2018-07-03T05:47:12.838Z,21.4
2018-07-03T05:47:53.816Z,21.54
2018-07-03T05:48:35.508Z,21.64
2018-07-03T05:49:16.590Z,21.58
2018-07-03T05:49:58.695Z,21.82
2018-07-03T05:50:40.587Z,21.91
2018-07-03T05:51:22.338Z,21.95
2018-07-03T05:52:03.415Z,22.02
2018-07-03T05:52:44.517Z,22.08
2018-07-03T05:53:25.563Z,22.1
2018-07-03T05:54:06.671Z,22.29
2018-07-03T05:54:47.609Z,22.3
2018-07-03T05:55:28.704Z,22.36
2018-07-03T05:56:09.793Z,22.45
2018-07-03T05:56:50.785Z,22.51
2018-07-03T05:57:31.901Z,22.48
2018-07-03T05:58:13.830Z,22.59
2018-07-03T05:58:55.493Z,22.63
2018-07-03T05:59:36.429Z,22.8
2018-07-03T06:00:17.559Z,22.78
2018-07-03T06:00:58.677Z,22.78
2018-07-03T06:01:39.712Z,22.83
2018-07-03T06:02:20.813Z,22.9
2018-07-03T06:03:01.757Z,22.85
2018-07-03T06:03:42.878Z,22.98
2018-07-03T06:04:24.712Z,22.99
2018-07-03T06:05:06.741Z,23
2018-07-03T06:05:47.879Z,23.06
2018-07-03T06:06:29.031Z,23.06
2018-07-03T06:07:10.184Z,23.15
2018-07-03T06:07:51.257Z,23.12
2018-07-03T06:08:32.266Z,23.17
2018-07-03T06:09:13.411Z,23.15
2018-07-03T06:09:54.439Z,23.2
2018-07-03T06:10:35.547Z,23.2
2018-07-03T06:11:17.145Z,23.23
2018-07-03T06:11:58.376Z,23.2
2018-07-03T06:12:39.390Z,23.36
2018-07-03T06:13:20.312Z,23.32
2018-07-03T06:14:01.424Z,23.4
2018-07-03T06:14:42.525Z,23.36
2018-07-03T06:15:23.659Z,23.5
2018-07-03T06:16:04.787Z,23.55
2018-07-03T06:16:46.026Z,23.63
2018-07-03T06:17:27.019Z,23.65
2018-07-03T06:18:08.170Z,23.78
2018-07-03T06:18:49.257Z,23.87
2018-07-03T06:19:30.290Z,23.98
2018-07-03T06:20:11.289Z,23.98
2018-07-03T06:20:52.327Z,23.96
2018-07-03T06:21:33.436Z,24.08
2018-07-03T06:22:14.519Z,24.14
2018-07-03T06:22:55.431Z,24.14
2018-07-03T06:23:36.544Z,24.11
2018-07-03T06:24:17.664Z,24.14
2018-07-03T06:24:59.677Z,24.21
2018-07-03T06:25:40.708Z,24.21
2018-07-03T06:26:21.731Z,24.17
2018-07-03T06:27:02.852Z,24.21
2018-07-03T06:27:44.681Z,24.26
2018-07-03T06:28:25.603Z,24.24
2018-07-03T06:29:06.703Z,24.3
2018-07-03T06:29:47.672Z,24.3
2018-07-03T06:30:28.792Z,24.39
2018-07-03T06:31:09.931Z,24.35
2018-07-03T06:31:50.919Z,24.45
2018-07-03T06:32:32.776Z,24.45
2018-07-03T06:33:14.488Z,24.48
2018-07-03T06:33:55.686Z,24.47
2018-07-03T06:34:36.718Z,24.42
2018-07-03T06:35:17.822Z,24.38
2018-07-03T06:35:59.053Z,24.48
2018-07-03T06:36:40.204Z,24.53
2018-07-03T06:37:21.399Z,24.51
2018-07-03T06:38:02.273Z,24.53
2018-07-03T06:38:44.448Z,24.55
2018-07-03T06:39:25.764Z,24.6
2018-07-03T06:40:07.654Z,24.69
2018-07-03T06:40:48.764Z,24.77
2018-07-03T06:41:29.874Z,24.85
2018-07-03T06:42:11.049Z,24.84
2018-07-03T06:42:52.081Z,24.95
2018-07-03T06:43:33.084Z,24.99
2018-07-03T06:44:14.325Z,24.99
2018-07-03T06:44:56.285Z,25.08
2018-07-03T06:45:37.329Z,25.07
2018-07-03T06:46:18.475Z,25.08
2018-07-03T06:46:59.569Z,25.07
2018-07-03T06:47:40.843Z,25.07
2018-07-03T06:48:22.161Z,25.18
2018-07-03T06:49:03.257Z,25.08
2018-07-03T06:49:44.642Z,25.11
2018-07-03T06:50:25.815Z,25.17
2018-07-03T06:51:07.142Z,25.21
2018-07-03T06:51:48.380Z,25.1
2018-07-03T06:52:29.829Z,25.23
2018-07-03T06:53:12.141Z,25.32
2018-07-03T06:53:54.255Z,25.23
2018-07-03T06:54:35.423Z,25.32
2018-07-03T06:55:17.234Z,25.35
2018-07-03T06:55:58.376Z,25.4
2018-07-03T06:56:39.569Z,25.41
2018-07-03T06:57:20.611Z,25.46
2018-07-03T06:58:01.627Z,25.47
2018-07-03T06:58:43.722Z,25.48
2018-07-03T06:59:25.125Z,25.5
2018-07-03T07:00:06.241Z,25.48
2018-07-03T07:00:48.129Z,25.48
2018-07-03T07:01:29.210Z,25.53
2018-07-03T07:02:10.385Z,25.58
2018-07-03T07:02:51.377Z,25.59
2018-07-03T07:03:32.533Z,25.55
2018-07-03T07:04:14.182Z,25.66
2018-07-03T07:04:56.080Z,25.63
2018-07-03T07:05:37.160Z,25.68
2018-07-03T07:06:18.196Z,25.68
2018-07-03T07:06:59.900Z,25.7
2018-07-03T07:07:40.990Z,25.72
2018-07-03T07:08:22.086Z,25.69
2018-07-03T07:09:03.220Z,25.63
2018-07-03T07:09:44.179Z,25.68
2018-07-03T07:10:25.287Z,25.55
2018-07-03T07:11:06.989Z,25.65
2018-07-03T07:11:48.106Z,25.68
2018-07-03T07:12:29.321Z,25.63
2018-07-03T07:13:10.456Z,25.66
2018-07-03T07:13:52.340Z,25.68
2018-07-03T07:14:33.608Z,25.66
2018-07-03T07:15:14.835Z,25.68
2018-07-03T07:15:55.955Z,25.78
2018-07-03T07:16:37.097Z,25.7
2018-07-03T07:17:18.281Z,25.73
2018-07-03T07:17:59.334Z,25.75
2018-07-03T07:18:40.598Z,25.84
2018-07-03T07:19:21.542Z,25.8
2018-07-03T07:20:02.624Z,25.83
2018-07-03T07:20:43.866Z,25.81
2018-07-03T07:21:25.615Z,25.85
2018-07-03T07:22:07.647Z,25.83
2018-07-03T07:22:49.244Z,25.9
2018-07-03T07:23:30.517Z,26
2018-07-03T07:24:12.589Z,26
2018-07-03T07:24:53.839Z,26.1
2018-07-03T07:25:35.726Z,26.15
2018-07-03T07:26:16.776Z,26.22
2018-07-03T07:26:58.466Z,26.07
2018-07-03T07:27:39.662Z,26.13
2018-07-03T07:28:20.934Z,26.25
2018-07-03T07:29:02.040Z,26.23
2018-07-03T07:29:43.124Z,26.28
2018-07-03T07:30:24.249Z,26.29
2018-07-03T07:31:05.963Z,26.34
2018-07-03T07:31:46.989Z,26.36
2018-07-03T07:32:27.912Z,26.33
2018-07-03T07:33:08.790Z,26.25
2018-07-03T07:33:50.522Z,26.29
2018-07-03T07:34:31.481Z,26.36
2018-07-03T07:35:12.490Z,26.31
2018-07-03T07:35:53.497Z,26.29
2018-07-03T07:36:34.579Z,26.28
2018-07-03T07:37:15.436Z,26.29
2018-07-03T07:37:57.584Z,26.37
2018-07-03T07:38:38.612Z,26.36
2018-07-03T07:39:19.862Z,26.33
2018-07-03T07:40:00.872Z,26.43
2018-07-03T07:40:42.176Z,26.43
2018-07-03T07:41:23.402Z,26.53
2018-07-03T07:42:04.380Z,26.51
2018-07-03T07:42:45.611Z,26.51
2018-07-03T07:43:26.696Z,26.53
2018-07-03T07:44:07.953Z,26.53
2018-07-03T07:44:49.100Z,26.53
2018-07-03T07:45:30.204Z,26.48
2018-07-03T07:46:12.218Z,26.37
2018-07-03T07:46:53.151Z,26.47
2018-07-03T07:47:34.054Z,26.44
2018-07-03T07:48:15.090Z,26.37
2018-07-03T07:48:56.152Z,26.29
2018-07-03T07:49:37.198Z,26.31
2018-07-03T07:50:18.271Z,26.1
2018-07-03T07:50:59.227Z,26.21
2018-07-03T07:51:41.178Z,26.19
2018-07-03T07:52:22.318Z,26.15
2018-07-03T07:53:03.410Z,26.06
2018-07-03T07:53:44.656Z,26.07
2018-07-03T07:54:25.693Z,26.07
2018-07-03T07:55:06.851Z,26.09
2018-07-03T07:55:50.352Z,26.05
2018-07-03T07:56:31.620Z,26.07
2018-07-03T07:57:12.932Z,26.05
2018-07-03T07:57:54.069Z,26.07
2018-07-03T07:58:35.301Z,26.21
2018-07-03T07:59:16.461Z,26.25
2018-07-03T07:59:57.480Z,26.18
2018-07-03T08:00:39.301Z,26.26
2018-07-03T08:01:20.440Z,26.28
2018-07-03T08:02:01.394Z,26.26
2018-07-03T08:02:42.458Z,26.38
2018-07-03T08:03:23.678Z,26.31
2018-07-03T08:04:04.630Z,26.31
2018-07-03T08:04:45.658Z,26.34
2018-07-03T08:05:26.497Z,26.43
2018-07-03T08:06:07.474Z,26.29
2018-07-03T08:06:48.802Z,26.29
2018-07-03T08:07:29.838Z,26.29
2018-07-03T08:08:11.001Z,26.34
2018-07-03T08:08:52.115Z,26.4
2018-07-03T08:09:33.353Z,26.43
2018-07-03T08:10:14.292Z,26.51
2018-07-03T08:10:55.526Z,26.55
2018-07-03T08:11:36.688Z,26.59
2018-07-03T08:12:17.946Z,26.62
2018-07-03T08:12:59.104Z,26.62
2018-07-03T08:13:40.197Z,26.6
2018-07-03T08:14:21.359Z,26.55
2018-07-03T08:15:02.599Z,26.56
2018-07-03T08:15:43.443Z,26.52
2018-07-03T08:16:24.583Z,26.55
2018-07-03T08:17:05.691Z,26.45
2018-07-03T08:17:46.863Z,26.48
2018-07-03T08:18:28.007Z,26.47
2018-07-03T08:19:10.115Z,26.45
2018-07-03T08:19:51.171Z,26.48
2018-07-03T08:20:32.352Z,26.58
2018-07-03T08:21:13.464Z,26.52
2018-07-03T08:21:54.637Z,26.63
2018-07-03T08:22:35.810Z,26.7
2018-07-03T08:23:16.811Z,26.63
2018-07-03T08:23:57.856Z,26.74
2018-07-03T08:24:39.020Z,26.73
2018-07-03T08:25:20.026Z,26.77
2018-07-03T08:26:01.293Z,26.83
2018-07-03T08:26:42.456Z,26.84
2018-07-03T08:27:23.682Z,26.8
2018-07-03T08:28:04.819Z,26.77
2018-07-03T08:28:46.040Z,26.89
2018-07-03T08:29:28.026Z,26.89
2018-07-03T08:30:09.271Z,26.96
2018-07-03T08:30:51.186Z,26.93
2018-07-03T08:31:32.367Z,26.92
2018-07-03T08:32:13.527Z,27.02
2018-07-03T08:32:54.580Z,26.96
2018-07-03T08:33:35.755Z,26.96
2018-07-03T08:34:16.925Z,26.93
2018-07-03T08:34:58.219Z,27.05
2018-07-03T08:35:39.359Z,27.02
2018-07-03T08:36:20.289Z,27.03
2018-07-03T08:37:01.974Z,27.07
2018-07-03T08:37:43.877Z,27.03
2018-07-03T08:38:25.043Z,27.07
2018-07-03T08:39:06.819Z,27.05
2018-07-03T08:39:48.043Z,26.95
2018-07-03T08:40:29.749Z,26.97
2018-07-03T08:41:10.889Z,26.89
2018-07-03T08:41:52.140Z,26.78
2018-07-03T08:42:33.296Z,26.8
2018-07-03T08:43:14.427Z,26.78
2018-07-03T08:43:55.537Z,26.66
2018-07-03T08:44:36.739Z,26.75
2018-07-03T08:45:17.977Z,26.8
2018-07-03T08:45:59.185Z,26.75
2018-07-03T08:46:40.408Z,26.73
2018-07-03T08:47:22.129Z,26.84
2018-07-03T08:48:03.197Z,26.88
2018-07-03T08:48:44.391Z,26.84
2018-07-03T08:49:25.558Z,26.93
2018-07-03T08:50:06.679Z,26.93
2018-07-03T08:50:47.789Z,26.95
2018-07-03T08:51:31.149Z,26.96
2018-07-03T08:52:13.105Z,26.93
2018-07-03T08:52:54.135Z,26.97
2018-07-03T08:53:35.334Z,26.88